Flight Track Log - Related Links

Times and Time Zones

All times are in EDT time to prevent confusion due to time zone crossing. See the DAL1032 flight status page for this flight to view local times or setup timezone preferences in your user account.

Time Position Orientation Groundspeed Altitude Reporting Facility
EDT Latitude Longitude Course Direction KTS MPH feet Rate Location/Type
Sat 12:17:59 PM 33.6500 -84.4667 301° West 164 189 3,200  Level Atlanta TRACON
Sat 12:18:59 PM 33.6833 -84.5333 320° Northwest 239 275 5,500 3,000 Climbing Atlanta TRACON
Sat 12:19:59 PM 33.7333 -84.5833 360° North 279 321 9,200 2,775 Climbing Atlanta TRACON
Sat 12:21:52 PM 33.8933 -84.5844 358° North 300 345 13,500 2,393 Climbing Atlanta Center
Sat 12:22:52 PM 33.9831 -84.5875 360° North 330 380 16,100 2,600 Climbing Atlanta Center
Sat 12:23:52 PM 34.0853 -84.5881 359° North 348 400 18,700 2,500 Climbing Atlanta Center
Sat 12:24:52 PM 34.2000 -84.5914 356° North 395 455 21,100 2,300 Climbing Atlanta Center
Sat 12:25:52 PM 34.3272 -84.6022 346° North 405 466 23,300 2,150 Climbing Atlanta Center
Sat 12:26:52 PM 34.4397 -84.6358 349° North 410 472 25,400 1,850 Climbing Atlanta Center
Sat 12:27:52 PM 34.5586 -84.6642 348° North 420 483 27,000 1,350 Climbing Atlanta Center
Sat 12:28:52 PM 34.6669 -84.6928 353° North 437 503 28,100 1,600 Climbing Atlanta Center
Sat 12:29:52 PM 34.7922 -84.7117 357° North 444 511 30,200 1,750 Climbing Atlanta Center
Sat 12:30:52 PM 34.9194 -84.7203 356° North 444 511 31,600 900 Climbing Atlanta Center
Sat 12:31:52 PM 35.0467 -84.7314 356° North 444 511 32,000 200 Climbing Atlanta Center
Sat 12:32:52 PM 35.1739 -84.7425 357° North 449 517 32,000  Level Atlanta Center
Sat 12:33:52 PM 35.3031 -84.7514 356° North 455 524 32,000 50 Level Atlanta Center
Sat 12:34:52 PM 35.4303 -84.7625 356° North 461 531 32,100  Climbing Atlanta Center
Sat 12:35:52 PM 35.5617 -84.7739 357° North 461 531 32,000 -50 Descending Atlanta Center
Sat 12:36:52 PM 35.6869 -84.7828 356° North 461 531 32,000 -184 Level Atlanta Center
Sat 12:38:35 PM 35.9067 -84.8003 356° North 461 531 31,500 -736 Descending Indianapolis Center
Sat 12:39:35 PM 36.0400 -84.8128 355° North 461 531 30,000 -750 Descending Indianapolis Center
Sat 12:40:35 PM 36.1650 -84.8250 356° North 461 531 30,000  Level Indianapolis Center
Sat 12:41:35 PM 36.2919 -84.8350 356° North 461 531 30,000  Level Indianapolis Center
Sat 12:42:35 PM 36.4192 -84.8472 356° North 461 531 30,000 -450 Level Indianapolis Center
Sat 12:43:35 PM 36.5464 -84.8572 355° North 461 531 29,100 -950 Descending Indianapolis Center
Sat 12:44:35 PM 36.6733 -84.8697 356° North 461 531 28,100 -2,100 Descending Indianapolis Center
Sat 12:45:35 PM 36.7964 -84.8797 355° North 461 531 24,900 -2,050 Descending Indianapolis Center
Sat 12:46:35 PM 36.9194 -84.8922 357° North 450 518 24,000 -450 Descending Indianapolis Center
Sat 12:47:35 PM 37.0528 -84.8997 355° North 438 504 24,000 -900 Level Indianapolis Center
Sat 12:48:35 PM 37.1672 -84.9122 357° North 426 490 22,200 -2,500 Descending Indianapolis Center
Sat 12:49:35 PM 37.2819 -84.9194 356° North 406 467 19,000 -2,950 Descending Indianapolis Center
Sat 12:50:35 PM 37.3883 -84.9294 356° North 393 452 16,300 -2,800 Descending Indianapolis Center
Sat 12:51:35 PM 37.4903 -84.9392 356° North 369 425 13,400 -2,300 Descending Indianapolis Center
Sat 12:52:35 PM 37.5861 -84.9486 353° North 351 404 11,700 -1,200 Descending Indianapolis Center
Sat 12:53:35 PM 37.6611 -84.9606 312° West 324 373 11,000 -450 Descending Indianapolis Center
Sat 12:54:35 PM 37.7125 -85.0325 312° West 273 314 10,800 -350 Descending Indianapolis Center
Sat 12:55:35 PM 37.7636 -85.1044 314° West 273 314 10,300 -600 Descending Indianapolis Center
Sat 12:56:35 PM 37.8169 -85.1739 294° West 279 321 9,600 -1,150 Descending Indianapolis Center
Sat 12:57:35 PM 37.8469 -85.2586 295° West 274 315 8,000 -1,916 Descending Indianapolis Center
Sat 12:58:34 PM 37.8797 -85.3486 294° West 271 312 5,800 -1,939 Descending FAA TRACON SMA TRACON (SMA)
Sat 12:59:14 PM 37.9006 -85.4086 295° West 270 311 4,800 -1,350 Descending FAA TRACON SMA TRACON (SMA)
Sat 12:59:54 PM 37.9214 -85.4653 294° West 256 295 4,000 -900 Descending FAA TRACON SMA TRACON (SMA)
Sat 01:00:34 PM 37.9394 -85.5178 295° West 231 266 3,600 -519 Descending FAA TRACON SMA TRACON (SMA)
Sat 01:01:15 PM 37.9550 -85.5606 294° West 217 250 3,300 -450 Descending FAA TRACON SMA TRACON (SMA)
Sat 01:01:54 PM 37.9722 -85.6092 294° West 218 251 3,000 -456 Descending FAA TRACON SMA TRACON (SMA)
Sat 01:02:34 PM 37.9872 -85.6522 332° Northwest 217 250 2,700 -375 Descending FAA TRACON SMA TRACON (SMA)
Sat 01:03:14 PM 38.0189 -85.6733 344° North 192 221 2,500 -148 Descending FAA TRACON SMA TRACON (SMA)
Sat 01:03:55 PM 38.0514 -85.6850 345° North 174 200 2,500 -300 Level FAA TRACON SMA TRACON (SMA)
Sat 01:04:34 PM 38.0850 -85.6961 345° North 181 208 2,100 -805 Descending FAA TRACON SMA TRACON (SMA)
Sat 01:05:17 PM 38.1150 -85.7067 345° North 156 180 1,400 -741 Descending FAA TRACON SMA TRACON (SMA)
Sat 01:05:55 PM 38.1361 -85.7139 345° North 127 146 1,100 -623 Descending FAA TRACON SMA TRACON (SMA)
Sat 01:06:34 PM 38.1575 -85.7211 345° North 127 146 600 -769 Descending FAA TRACON SMA TRACON (SMA)

Login

Don't have an account? Register now (free) for customized features, flight alerts, and more!